Polk, PA (16342)

10:04 PM EDT on April 27, 2015 (GMT -0400)
Venango Regional | | Change Station
CLOSE
Current Station
Airport
Location: Franklin,
Elevation: 1539 ft
Nearby Weather Stations

Elev 1539 ft 41.38 °N, 79.86 °W | Updated 9 minutes ago

Overcast
Overcast
39 °F
Feels Like 35 °F
N
6
Wind Variable Wind from WNW

Today
High -- | Low -- °F
--% Chance of Precip.
Yesterday
High -- | Low -- °F
Precip. -- in
6:22 AM 8:12 PM
Waxing Gibbous, 69% visible
Pressure 30.01 in
Visibility 10.0 miles
Clouds Few 2600 ft
Few 3300 ft
Overcast 4900 ft
Windchill 35 °F
Dew Point 34 °F
Humidity 81%
Rainfall 0.02 in
Snow Depth Not available.
UV 0 out of 12
Pollen 9.30 out of 12
Air Quality Not available.
Flu Activity Sporadic
METAR KFKL 280155Z AUTO 29005KT 10SM FEW026 FEW033 OVC049 04/01 A3001 RMK AO1

More Conditions Fewer Conditions

Pressure 30.01 in
Visibility 10.0 miles
Clouds Few 2600 ft
Few 3300 ft
Overcast 4900 ft
Windchill 35 °F
Dew Point 34 °F
Humidity 81%
Rainfall 0.02 in
Snow Depth Not available.
UV 0 out of 12
Pollen 9.30 out of 12
Air Quality Not available.
Flu Activity Sporadic
METAR KFKL 280155Z AUTO 29005KT 10SM FEW026 FEW033 OVC049 04/01 A3001 RMK AO1

More Conditions Fewer Conditions

10-Day Weather Forecast

Almanac

Astronomy

Apr. 27, 2015 Rise Set
Actual Time
Civil Twilight
Nautical Twilight
Astronomical Twilight
Moon
Length of Visible Light
Length of Day
Tomorrow will be .
, % of the Moon is Illuminated

Today's Extremes

State Highs State Lows

Community

WunderPhotos

Upload Photos

1,817,508 photos uploaded!

WunderBlogs® & News

Nearby

Air Quality

  Air Quality AQ Index Pollutant
Not available.

Snow Depth

Station Depth Elevation

Earthquake Activity

City Distance Mag. Time & Date
Minimum magnitude displayed is 2.5.

Coastal Water Temperatures

Place Temperature

Stations

Nearby Weather Stations

Station Location Temp. Windchill Dew Point Humidity Wind Precip. Elev Updated Type